LECO/LCG METAR and TAF weather

Enter ICAO airport designator
Station Type Date Time Source
LECO METAR 2022/06/27 08:00 UTC NOAA

LECO 270800Z 15003KT 9999 FEW027 13/10 Q1023 NOSIG


Station Type Date Time Source
LECO Decoded METAR 2022/06/27 08:00 UTC NOAA

La Coruna / Alvedro, Spain (LECO) 43-18N 008-23W 103M
Jun 27, 2022 - 04:00 AM EDT / 2022.06.27 0800 UTC
Wind: from the SSE (150 degrees) at 3 MPH (3 KT):0
Visibility: greater than 7 mile(s):0
Sky conditions: mostly clear
Temperature: 55 F (13 C)
Dew Point: 50 F (10 C)
Relative Humidity: 81%
Pressure (altimeter): 30.21 in. Hg (1023 hPa)
ob: LECO 270800Z 15003KT 9999 FEW027 13/10 Q1023 NOSIG
cycle: 8

Station Type Date Time Source
LECO TAF 2022/06/27 09:00 UTC NOAA

TAF LECO 270800Z 2709/2809 35009KT 9999 SCT030 TX18/2714Z TN09/2805Z PROB30
TEMPO 2712/2718 36012G22KT PROB30
TEMPO 2803/2807 3000 BCFG BKN010

Example: see airport list